Pagina principale
METAR-TAF:

METAR-TAF

Aeroporti :

De Aar, Sudafrica

latitudine: 30-40-29S, longitudine: 23-59-57E, altezza: 1286 m

Osservazione

Il bollettino è stato emesso 11 ore e 17 minuti fa, alle 07:43 UTC
Vento 8 kt da est
Temperature 19°C
Umidità 52%
Pressione 1025 hPa
Visibilità 10 km o più
nessuna nube inferiore a 1500 m e nessun cumulonembo

METAR: FADY 240743Z 10008KT CAVOK 19/09 Q1025

Ora: 21:00 (19:00 UTC)


TAF: mancante

Osservazioni e previsioni meteorologiche di più di 4000 aeroporti (messaggi METAR e TAF).

Le stazioni disponibili sono rappresentate dai dischi gialli e rossi sulla carta.

Puntare il mouse per vedere il nome della stazione.

Clicca sopra per visualizzare le osservazioni e previsioni meteorologiche.

Per cambiare la mappa : fare clic sui pulsanti verdi con una croce nera per ingrandire, il pulsante verde con un trattino per diminuire, o sulla freccia verde per le mappe adiacenti.


METAR-TAF: